Time;durP1;ratioP1;P1;durP2;ratioP2;P2;SDS_P1;SDS_P2;PMS_P1;PMS_P2;Temp;Humidity;BMP_temperature;BMP_pressure;BME280_temperature;BME280_humidity;BME280_pressure;Samples;Min_cycle;Max_cycle;Signal;HPM_P1;HPM_P2
2022/01/05 00:02:06;;;;;;;7.90;1.23;;;1.40;99.90;;;;;;5061792;28;20041;-66
2022/01/05 00:04:33;;;;;;;10.45;1.70;;;1.40;99.90;;;;;;5064175;28;20436;-66
2022/01/05 00:06:58;;;;;;;8.95;1.33;;;1.50;99.90;;;;;;5061539;28;20040;-66
2022/01/05 00:09:24;;;;;;;10.15;1.10;;;1.50;99.90;;;;;;5049510;28;20096;-66
2022/01/05 00:11:49;;;;;;;8.52;1.70;;;1.60;99.90;;;;;;5063760;28;20094;-66
2022/01/05 00:14:15;;;;;;;8.75;1.20;;;1.70;99.90;;;;;;5061992;28;20041;-66
2022/01/05 00:16:41;;;;;;;8.63;1.42;;;1.90;99.90;;;;;;5062292;28;20076;-66
2022/01/05 00:19:07;;;;;;;10.95;1.08;;;2.00;99.90;;;;;;5065788;28;20109;-66
2022/01/05 00:21:33;;;;;;;10.77;1.48;;;2.10;99.90;;;;;;5059939;28;20044;-66
2022/01/05 00:23:58;;;;;;;16.02;1.48;;;2.10;99.90;;;;;;5062804;28;20048;-66
2022/01/05 00:26:25;;;;;;;7.55;0.90;;;2.10;99.90;;;;;;5064822;28;20040;-66
2022/01/05 00:28:51;;;;;;;6.47;1.00;;;2.10;99.90;;;;;;5053599;28;20055;-66
2022/01/05 00:31:17;;;;;;;4.50;1.00;;;2.10;99.90;;;;;;5061062;28;20476;-66
2022/01/05 00:33:43;;;;;;;6.80;0.88;;;2.10;99.90;;;;;;5059388;28;20041;-66
2022/01/05 00:36:08;;;;;;;9.43;1.10;;;2.00;99.90;;;;;;5060270;28;20055;-66
2022/01/05 00:38:34;;;;;;;11.48;1.67;;;2.00;99.90;;;;;;5059740;28;20033;-66
2022/01/05 00:41:00;;;;;;;7.07;0.90;;;2.00;99.90;;;;;;5060400;28;20070;-66
2022/01/05 00:43:27;;;;;;;10.63;1.30;;;1.90;99.90;;;;;;5061487;28;20349;-66
2022/01/05 00:45:53;;;;;;;8.85;1.15;;;1.90;99.90;;;;;;5063932;28;20044;-66
2022/01/05 00:48:19;;;;;;;10.65;1.10;;;1.90;99.90;;;;;;5063358;28;20036;-66
2022/01/05 00:50:44;;;;;;;9.93;0.90;;;1.90;99.90;;;;;;5062968;28;20521;-66
2022/01/05 00:53:10;;;;;;;9.68;1.05;;;1.80;99.90;;;;;;5059728;28;20074;-66
2022/01/05 00:55:37;;;;;;;5.47;1.05;;;1.80;99.90;;;;;;5057748;28;20362;-66
2022/01/05 00:58:03;;;;;;;8.75;1.40;;;1.70;99.90;;;;;;5060599;28;20040;-66
2022/01/05 01:00:29;;;;;;;11.20;1.20;;;1.70;99.90;;;;;;5063488;28;20032;-66
2022/01/05 01:02:54;;;;;;;10.82;1.23;;;1.70;99.90;;;;;;5059546;28;20047;-66
2022/01/05 01:05:20;;;;;;;7.60;1.10;;;1.70;99.90;;;;;;5062787;28;20072;-66
2022/01/05 01:07:46;;;;;;;9.73;1.40;;;1.70;99.90;;;;;;5060368;28;20036;-66
2022/01/05 01:10:13;;;;;;;7.65;1.15;;;1.60;99.90;;;;;;5063209;28;20032;-66
2022/01/05 01:12:39;;;;;;;6.18;1.17;;;1.60;99.90;;;;;;5062621;28;20114;-66
2022/01/05 01:15:07;;;;;;;9.15;1.27;;;1.60;99.90;;;;;;5063119;28;20040;-66
2022/01/05 01:17:33;;;;;;;6.55;1.05;;;1.60;99.90;;;;;;5065285;28;20036;-66
2022/01/05 01:19:59;;;;;;;8.75;1.08;;;1.60;99.90;;;;;;5059694;28;20029;-66
2022/01/05 01:22:28;;;;;;;10.65;1.10;;;1.60;99.90;;;;;;5063372;28;20040;-66
2022/01/05 01:24:53;;;;;;;7.07;0.90;;;1.60;99.90;;;;;;5061965;28;20492;-66
2022/01/05 01:27:19;;;;;;;12.60;1.40;;;1.70;99.90;;;;;;5061893;28;20052;-66
2022/01/05 01:29:45;;;;;;;8.88;1.15;;;1.70;99.90;;;;;;5059676;28;20051;-66
2022/01/05 01:32:11;;;;;;;11.95;1.27;;;1.70;99.90;;;;;;5069197;28;20038;-67
2022/01/05 01:34:37;;;;;;;11.63;1.73;;;1.80;99.90;;;;;;5057731;28;20068;-66
2022/01/05 01:37:03;;;;;;;8.75;1.27;;;1.80;99.90;;;;;;5057668;28;20095;-66
2022/01/05 01:39:29;;;;;;;10.65;1.65;;;1.90;99.90;;;;;;5065216;28;20037;-66
2022/01/05 01:41:54;;;;;;;9.88;1.23;;;1.90;99.90;;;;;;5060999;28;20106;-66
2022/01/05 01:44:20;;;;;;;8.38;1.25;;;1.90;99.90;;;;;;5061334;28;20407;-66
2022/01/05 01:46:46;;;;;;;7.65;1.67;;;2.00;99.90;;;;;;5065161;28;20040;-66
2022/01/05 01:49:12;;;;;;;8.50;1.20;;;2.00;99.90;;;;;;5063580;28;20123;-66
2022/01/05 01:51:37;;;;;;;14.88;2.10;;;2.00;99.90;;;;;;5058537;28;20485;-66
2022/01/05 01:54:05;;;;;;;10.35;1.33;;;1.90;99.90;;;;;;5064515;28;20327;-67
2022/01/05 01:56:33;;;;;;;10.98;1.50;;;1.90;99.90;;;;;;5061711;28;20557;-67
2022/01/05 01:59:00;;;;;;;11.13;1.63;;;1.90;99.90;;;;;;5059092;28;20049;-67
2022/01/05 02:01:26;;;;;;;8.57;1.27;;;2.00;99.90;;;;;;5070958;28;20043;-66
2022/01/05 02:03:52;;;;;;;11.02;1.48;;;2.00;99.90;;;;;;5066208;28;20416;-66
2022/01/05 02:06:17;;;;;;;10.50;1.42;;;2.00;99.90;;;;;;5065334;28;20139;-67
2022/01/05 02:08:43;;;;;;;8.40;1.58;;;1.90;99.90;;;;;;5067021;28;20059;-66
2022/01/05 02:11:11;;;;;;;7.10;2.03;;;2.00;99.90;;;;;;5064168;28;20037;-66
2022/01/05 02:13:37;;;;;;;9.00;1.15;;;2.00;99.90;;;;;;5050017;28;20110;-66
2022/01/05 02:16:04;;;;;;;11.65;1.70;;;2.00;99.90;;;;;;5072096;28;20060;-66
2022/01/05 02:20:59;;;;;;;14.38;1.95;;;2.10;99.90;;;;;;5068951;28;20080;-66
2022/01/05 02:23:25;;;;;;;13.70;1.45;;;2.10;99.90;;;;;;5065234;28;20205;-66
2022/01/05 02:25:51;;;;;;;10.60;1.50;;;2.10;99.90;;;;;;5066646;28;20071;-66
2022/01/05 02:28:17;;;;;;;9.85;1.25;;;2.10;99.90;;;;;;5063228;28;20044;-66
2022/01/05 02:30:43;;;;;;;8.65;1.67;;;2.00;99.90;;;;;;5069228;28;20040;-66
2022/01/05 02:33:09;;;;;;;14.90;1.52;;;2.00;99.90;;;;;;5061949;28;20150;-66
2022/01/05 02:35:34;;;;;;;10.45;1.13;;;2.10;99.90;;;;;;5057284;28;20336;-67
2022/01/05 02:38:00;;;;;;;10.27;1.65;;;2.10;99.90;;;;;;5057397;28;20063;-67
2022/01/05 02:40:26;;;;;;;6.88;1.20;;;2.10;99.90;;;;;;5059868;28;20075;-67
2022/01/05 02:42:54;;;;;;;13.18;1.50;;;2.00;99.90;;;;;;5061874;28;20159;-66
2022/01/05 02:45:21;;;;;;;10.20;1.65;;;2.10;99.90;;;;;;5065186;28;20049;-67
2022/01/05 02:47:48;;;;;;;7.93;1.60;;;2.10;99.90;;;;;;5060583;28;20062;-67
2022/01/05 02:50:14;;;;;;;10.13;1.65;;;2.10;99.90;;;;;;5066347;28;20040;-66
2022/01/05 02:52:40;;;;;;;10.50;1.35;;;2.00;99.90;;;;;;5063169;28;20048;-66
2022/01/05 02:55:06;;;;;;;11.23;1.58;;;2.00;99.90;;;;;;5065005;28;20137;-66
2022/01/05 02:57:32;;;;;;;12.70;1.73;;;2.10;99.90;;;;;;5065368;28;20040;-66
2022/01/05 02:59:58;;;;;;;14.25;2.15;;;2.10;99.90;;;;;;5064814;28;20053;-66
2022/01/05 03:02:23;;;;;;;16.85;2.65;;;2.10;99.90;;;;;;5062775;28;20071;-66
2022/01/05 03:04:49;;;;;;;12.45;2.00;;;2.10;99.90;;;;;;5066262;28;20087;-67
2022/01/05 03:07:16;;;;;;;12.70;1.50;;;2.10;99.90;;;;;;5067282;28;20091;-66
2022/01/05 03:09:42;;;;;;;15.27;1.80;;;2.10;99.90;;;;;;5065456;28;20052;-66
2022/01/05 03:12:10;;;;;;;10.07;1.70;;;2.20;99.90;;;;;;5064888;28;20056;-66
2022/01/05 03:14:36;;;;;;;13.25;1.90;;;2.30;99.90;;;;;;5069141;28;20092;-66
2022/01/05 03:17:02;;;;;;;14.38;1.98;;;2.30;99.90;;;;;;5063942;28;20119;-66
2022/01/05 03:19:27;;;;;;;8.93;1.45;;;2.40;99.90;;;;;;5061506;28;20044;-66
2022/01/05 03:21:53;;;;;;;12.68;2.10;;;2.40;99.90;;;;;;5066320;28;20319;-67
2022/01/05 03:24:19;;;;;;;15.43;2.03;;;2.40;99.90;;;;;;5063195;28;20119;-66
2022/01/05 03:26:44;;;;;;;13.18;1.58;;;2.50;99.90;;;;;;5060655;28;20044;-66
2022/01/05 03:29:10;;;;;;;14.75;2.08;;;2.60;99.90;;;;;;5067622;28;20032;-66
2022/01/05 03:31:36;;;;;;;9.18;2.05;;;2.60;99.90;;;;;;5066904;28;20476;-66
2022/01/05 03:34:04;;;;;;;17.27;2.17;;;2.70;99.90;;;;;;5062874;28;20052;-66
2022/01/05 03:36:29;;;;;;;13.82;2.33;;;2.70;99.90;;;;;;5063327;28;20086;-66
2022/01/05 03:38:55;;;;;;;11.43;2.10;;;2.80;99.90;;;;;;5062843;28;20036;-66
2022/01/05 03:41:21;;;;;;;15.27;2.13;;;2.70;99.90;;;;;;5061905;28;20040;-67
2022/01/05 03:43:47;;;;;;;13.43;2.42;;;2.80;99.90;;;;;;5064858;28;20045;-66
2022/01/05 03:46:13;;;;;;;17.55;1.95;;;2.70;99.90;;;;;;5064703;28;20080;-66
2022/01/05 03:48:39;;;;;;;17.50;2.60;;;2.80;99.90;;;;;;5059604;28;20441;-66
2022/01/05 03:51:05;;;;;;;13.40;2.65;;;2.70;99.90;;;;;;5065743;28;20775;-66
2022/01/05 03:53:30;;;;;;;17.30;2.28;;;2.70;99.90;;;;;;5064152;28;20048;-66
2022/01/05 03:55:56;;;;;;;13.25;1.92;;;2.80;99.90;;;;;;5062388;28;20056;-66
2022/01/05 03:58:22;;;;;;;18.25;2.05;;;2.70;99.90;;;;;;5061889;28;20358;-66
2022/01/05 04:00:50;;;;;;;20.35;1.83;;;2.70;99.90;;;;;;5063185;28;20520;-66
2022/01/05 04:03:16;;;;;;;11.60;2.10;;;2.80;99.90;;;;;;5062457;28;20044;-66
2022/01/05 04:05:42;;;;;;;13.70;1.90;;;2.80;99.90;;;;;;5062826;28;20377;-66
2022/01/05 04:08:08;;;;;;;13.48;2.10;;;2.80;99.90;;;;;;5061888;28;20040;-66
2022/01/05 04:10:34;;;;;;;13.93;2.75;;;2.90;99.90;;;;;;5061846;28;20040;-66
2022/01/05 04:13:01;;;;;;;9.95;2.00;;;2.90;99.90;;;;;;5062519;28;20071;-66
2022/01/05 04:15:27;;;;;;;11.23;1.77;;;3.00;99.90;;;;;;5061701;28;20067;-66
2022/01/05 04:17:53;;;;;;;10.68;1.70;;;3.00;99.90;;;;;;5062131;28;20091;-66
2022/01/05 04:20:19;;;;;;;12.50;2.13;;;3.00;99.90;;;;;;5065804;28;20045;-66
2022/01/05 04:22:46;;;;;;;16.35;2.35;;;3.00;99.90;;;;;;5065088;28;20039;-66
2022/01/05 04:25:12;;;;;;;10.18;1.55;;;3.10;99.90;;;;;;5065078;28;20294;-66
2022/01/05 04:27:39;;;;;;;11.90;1.90;;;3.20;99.90;;;;;;5073026;28;20076;-66
2022/01/05 04:30:07;;;;;;;11.23;2.08;;;3.20;99.90;;;;;;5060239;28;20037;-66
2022/01/05 04:32:34;;;;;;;10.70;2.00;;;3.30;99.90;;;;;;5056483;28;20040;-66
2022/01/05 04:34:59;;;;;;;9.57;2.10;;;3.30;99.90;;;;;;5060673;28;20036;-66
2022/01/05 04:37:25;;;;;;;11.90;1.55;;;3.40;99.90;;;;;;5057049;28;20040;-66
2022/01/05 04:39:51;;;;;;;12.55;1.67;;;3.30;99.90;;;;;;5055089;28;20090;-66
2022/01/05 04:42:17;;;;;;;15.18;1.95;;;3.40;99.90;;;;;;5067330;28;20083;-66
2022/01/05 04:44:43;;;;;;;15.98;2.65;;;3.40;99.90;;;;;;5055817;28;20422;-66
2022/01/05 04:47:09;;;;;;;9.05;1.80;;;3.40;99.90;;;;;;5059677;28;20052;-66
2022/01/05 04:49:36;;;;;;;7.90;1.85;;;3.40;99.90;;;;;;5056408;28;20040;-66
2022/01/05 04:52:01;;;;;;;10.25;1.42;;;3.40;99.90;;;;;;5063870;28;20078;-67
2022/01/05 04:54:27;;;;;;;13.18;1.80;;;3.50;99.90;;;;;;5058925;28;20124;-66
2022/01/05 04:56:53;;;;;;;10.27;1.25;;;3.40;99.90;;;;;;5058005;28;20094;-66
2022/01/05 04:59:18;;;;;;;11.30;1.52;;;3.40;99.90;;;;;;5060023;28;20068;-66
2022/01/05 05:01:44;;;;;;;8.35;1.27;;;3.40;99.90;;;;;;5059374;28;20054;-66
2022/01/05 05:04:10;;;;;;;8.27;1.98;;;3.40;99.90;;;;;;5061561;28;20069;-66
2022/01/05 05:06:35;;;;;;;10.65;1.60;;;3.50;99.90;;;;;;5061603;28;20045;-66
2022/01/05 05:09:01;;;;;;;8.70;1.63;;;3.40;99.90;;;;;;5060722;28;20365;-66
2022/01/05 05:11:27;;;;;;;11.32;1.83;;;3.30;99.90;;;;;;5053453;28;20035;-66
2022/01/05 05:13:52;;;;;;;11.52;1.70;;;3.30;99.90;;;;;;5059789;28;20052;-66
2022/01/05 05:16:18;;;;;;;10.85;1.80;;;3.30;99.90;;;;;;5062685;28;20074;-66
2022/01/05 05:18:44;;;;;;;14.52;2.38;;;3.40;99.90;;;;;;5054464;28;20033;-67
2022/01/05 05:21:09;;;;;;;9.98;1.67;;;3.40;99.90;;;;;;5056387;28;20132;-66
2022/01/05 05:23:35;;;;;;;10.52;1.50;;;3.40;99.90;;;;;;5061097;28;20063;-67
2022/01/05 05:26:01;;;;;;;12.98;2.05;;;3.40;99.90;;;;;;5039389;28;20049;-66
2022/01/05 05:28:27;;;;;;;9.18;1.70;;;3.50;99.90;;;;;;5063709;28;20269;-66
2022/01/05 05:30:52;;;;;;;10.30;1.98;;;3.40;99.90;;;;;;5060371;28;20459;-66
2022/01/05 05:33:18;;;;;;;11.40;1.67;;;3.50;99.90;;;;;;5058752;28;20028;-66
2022/01/05 05:35:44;;;;;;;13.88;1.77;;;3.60;99.90;;;;;;5054439;28;20094;-66
2022/01/05 05:38:11;;;;;;;14.10;1.67;;;3.60;99.90;;;;;;5058813;28;20041;-67
2022/01/05 05:40:38;;;;;;;12.57;1.48;;;3.60;99.90;;;;;;5057449;28;20037;-67
2022/01/05 05:43:04;;;;;;;10.65;1.50;;;3.70;99.90;;;;;;5053930;28;20053;-66
2022/01/05 05:45:30;;;;;;;12.82;2.15;;;3.70;99.90;;;;;;5057766;28;20056;-66
2022/01/05 05:47:56;;;;;;;13.80;1.63;;;3.70;99.90;;;;;;5056017;28;20037;-66
2022/01/05 05:50:22;;;;;;;8.50;2.35;;;3.80;99.90;;;;;;5057976;28;20043;-66
2022/01/05 05:52:48;;;;;;;15.50;2.47;;;3.80;99.90;;;;;;5056399;28;20104;-66
2022/01/05 05:55:14;;;;;;;8.82;1.45;;;3.80;99.90;;;;;;5059499;28;20061;-66
2022/01/05 05:57:40;;;;;;;13.57;1.42;;;3.90;99.90;;;;;;5055868;28;20166;-66
2022/01/05 06:00:06;;;;;;;16.27;3.00;;;4.00;99.90;;;;;;5059424;28;20040;-65
2022/01/05 06:02:33;;;;;;;14.75;2.60;;;4.00;99.90;;;;;;5059420;28;20072;-65
2022/01/05 06:04:58;;;;;;;15.48;1.90;;;4.10;99.90;;;;;;5060512;28;20047;-65
2022/01/05 06:07:24;;;;;;;13.40;2.13;;;4.20;99.90;;;;;;5023734;28;20135;-66
2022/01/05 06:09:50;;;;;;;15.45;2.35;;;4.20;99.90;;;;;;5056373;28;20033;-66
2022/01/05 06:12:15;;;;;;;17.83;5.18;;;4.30;99.90;;;;;;5058406;28;20445;-66
2022/01/05 06:14:42;;;;;;;15.20;4.20;;;4.30;99.90;;;;;;5059059;28;20036;-65
2022/01/05 06:17:07;;;;;;;13.98;2.13;;;4.30;99.90;;;;;;5060318;28;20501;-65
2022/01/05 06:19:33;;;;;;;14.25;1.77;;;4.20;99.90;;;;;;5054745;28;20045;-66
2022/01/05 06:22:02;;;;;;;12.13;2.10;;;4.20;99.90;;;;;;5054438;28;20060;-66
2022/01/05 06:24:28;;;;;;;12.95;2.00;;;4.20;99.90;;;;;;5054356;28;20469;-66
2022/01/05 06:26:54;;;;;;;10.80;1.65;;;4.20;99.90;;;;;;5055270;28;20133;-65
2022/01/05 06:29:20;;;;;;;16.60;2.15;;;4.10;99.90;;;;;;5058281;28;20037;-65
2022/01/05 06:31:45;;;;;;;13.27;1.73;;;4.10;99.90;;;;;;5060840;28;20044;-65
2022/01/05 06:34:11;;;;;;;6.53;1.42;;;4.10;99.90;;;;;;5052513;28;20033;-65
2022/01/05 06:36:37;;;;;;;11.52;2.42;;;4.00;99.90;;;;;;5054892;28;20127;-65
2022/01/05 06:39:04;;;;;;;12.23;1.77;;;4.00;99.90;;;;;;5055510;28;20452;-65
2022/01/05 06:41:30;;;;;;;12.70;2.00;;;4.00;99.90;;;;;;5056578;28;20044;-65
2022/01/05 06:43:56;;;;;;;12.68;2.45;;;4.10;99.90;;;;;;5055603;28;20041;-65
2022/01/05 06:46:21;;;;;;;12.45;1.73;;;4.10;99.90;;;;;;5059067;28;20048;-65
2022/01/05 06:48:47;;;;;;;14.48;3.85;;;4.00;99.90;;;;;;5041333;28;20300;-65
2022/01/05 06:51:13;;;;;;;13.02;2.90;;;4.20;99.90;;;;;;5057061;28;20036;-65
2022/01/05 06:53:39;;;;;;;10.65;1.70;;;4.10;99.90;;;;;;5060211;28;20135;-65
2022/01/05 06:56:04;;;;;;;8.68;1.60;;;4.00;99.90;;;;;;5055427;28;20043;-65
2022/01/05 06:58:31;;;;;;;11.10;1.80;;;4.10;99.90;;;;;;5057698;28;20044;-65
2022/01/05 07:00:56;;;;;;;7.40;1.58;;;4.10;99.90;;;;;;5060338;28;20389;-65
2022/01/05 07:03:22;;;;;;;4.93;0.82;;;4.10;99.90;;;;;;5064726;28;20491;-65
2022/01/05 07:05:48;;;;;;;5.65;1.30;;;4.00;99.90;;;;;;5064926;28;20040;-66
2022/01/05 07:08:14;;;;;;;5.57;1.00;;;4.00;99.90;;;;;;5060883;28;20115;-65
2022/01/05 07:10:40;;;;;;;8.55;1.05;;;4.10;99.90;;;;;;5060473;28;20123;-66
2022/01/05 07:13:07;;;;;;;7.00;1.20;;;4.00;99.90;;;;;;5062174;28;20024;-65
2022/01/05 07:15:33;;;;;;;8.68;0.93;;;3.90;99.90;;;;;;5039625;28;20060;-65
2022/01/05 07:17:59;;;;;;;9.95;1.27;;;3.90;99.90;;;;;;5064384;28;20043;-65
2022/01/05 07:20:24;;;;;;;8.43;1.13;;;3.90;99.90;;;;;;5056279;28;20040;-65
2022/01/05 07:22:50;;;;;;;10.52;1.33;;;3.80;99.90;;;;;;5058822;28;20092;-64
2022/01/05 07:25:16;;;;;;;7.75;1.15;;;3.80;99.90;;;;;;5060746;28;20076;-65
2022/01/05 07:27:42;;;;;;;7.85;1.30;;;3.80;99.90;;;;;;5056880;28;20040;-65
2022/01/05 07:30:09;;;;;;;7.05;1.08;;;3.80;99.90;;;;;;5054561;28;20049;-64
2022/01/05 07:32:35;;;;;;;10.02;1.25;;;3.70;99.90;;;;;;5063171;28;20071;-64
2022/01/05 07:35:01;;;;;;;19.13;9.25;;;3.70;99.90;;;;;;5056340;28;20052;-65
2022/01/05 07:37:27;;;;;;;11.68;2.33;;;3.70;99.90;;;;;;5059523;28;20064;-65
2022/01/05 07:39:53;;;;;;;11.85;1.30;;;3.80;99.90;;;;;;5058043;28;20076;-65
2022/01/05 07:42:19;;;;;;;10.35;1.20;;;3.80;99.90;;;;;;5059008;28;20036;-64
2022/01/05 07:44:45;;;;;;;9.10;1.15;;;3.70;99.90;;;;;;5063380;28;20090;-63
2022/01/05 07:47:12;;;;;;;11.90;1.00;;;3.80;99.90;;;;;;5060274;28;20044;-63
2022/01/05 07:49:38;;;;;;;6.80;1.30;;;3.80;99.90;;;;;;5065463;28;20040;-64
2022/01/05 07:52:05;;;;;;;7.57;1.60;;;3.70;99.90;;;;;;5055708;28;20080;-64
2022/01/05 07:54:32;;;;;;;10.07;1.15;;;3.80;99.90;;;;;;5068661;28;20048;-64
2022/01/05 07:56:59;;;;;;;14.07;1.67;;;3.80;99.90;;;;;;5060116;28;20095;-63
2022/01/05 07:59:25;;;;;;;7.75;1.23;;;3.90;99.90;;;;;;5064226;28;20045;-64
2022/01/05 08:01:51;;;;;;;13.15;1.63;;;3.90;99.90;;;;;;5058807;28;20063;-64
2022/01/05 08:04:17;;;;;;;14.00;1.50;;;4.00;99.90;;;;;;5058511;28;20056;-64
2022/01/05 08:06:43;;;;;;;18.75;2.15;;;4.00;99.90;;;;;;5057803;28;20110;-64
2022/01/05 08:09:09;;;;;;;19.60;2.65;;;4.10;99.90;;;;;;5059271;28;20033;-64
2022/01/05 08:11:35;;;;;;;17.38;1.88;;;4.30;99.90;;;;;;5057038;28;20055;-64
2022/01/05 08:14:01;;;;;;;16.38;2.00;;;4.40;99.90;;;;;;5058038;28;20445;-64
2022/01/05 08:16:27;;;;;;;16.98;2.63;;;4.50;99.90;;;;;;5061088;28;20374;-64
2022/01/05 08:18:52;;;;;;;10.57;1.70;;;4.60;99.90;;;;;;5061185;28;20036;-64
2022/01/05 08:21:18;;;;;;;21.88;2.00;;;4.60;99.90;;;;;;5060489;28;20472;-64
2022/01/05 08:23:44;;;;;;;14.30;1.67;;;4.60;99.90;;;;;;5056218;28;20036;-65
2022/01/05 08:26:10;;;;;;;14.13;2.25;;;4.70;99.90;;;;;;5061378;28;20032;-64
2022/01/05 08:28:36;;;;;;;12.30;1.88;;;4.70;99.90;;;;;;5057343;28;20048;-64
2022/01/05 08:31:02;;;;;;;9.65;1.67;;;4.70;99.90;;;;;;5062034;28;20081;-64
2022/01/05 08:33:28;;;;;;;11.48;1.67;;;4.70;99.90;;;;;;5062246;28;20054;-64
2022/01/05 08:35:54;;;;;;;6.80;1.13;;;4.70;99.90;;;;;;5059987;28;20060;-63
2022/01/05 08:38:20;;;;;;;6.93;1.13;;;4.70;99.90;;;;;;5055857;28;20511;-63
2022/01/05 08:40:47;;;;;;;10.38;1.40;;;4.70;99.90;;;;;;5058991;28;20500;-63
2022/01/05 08:43:14;;;;;;;13.70;1.17;;;4.70;99.90;;;;;;5059359;28;20383;-64
2022/01/05 08:45:41;;;;;;;16.80;1.67;;;4.70;99.90;;;;;;5062563;28;20163;-63
2022/01/05 08:48:07;;;;;;;10.15;1.40;;;4.70;99.90;;;;;;5062768;28;20388;-63
2022/01/05 08:50:34;;;;;;;10.02;1.55;;;4.70;99.90;;;;;;5059944;28;20084;-64
2022/01/05 08:53:00;;;;;;;17.33;1.63;;;4.70;99.90;;;;;;5060274;28;20036;-64
2022/01/05 08:55:47;;;;;;;13.65;1.40;;;4.80;99.90;;;;;;5056204;28;20063;-63
2022/01/05 08:58:14;;;;;;;13.75;1.38;;;4.80;99.90;;;;;;5060559;28;20064;-64
2022/01/05 09:00:40;;;;;;;42.30;24.38;;;4.90;99.90;;;;;;5060261;28;20040;-64
2022/01/05 09:03:06;;;;;;;15.60;4.28;;;4.90;99.90;;;;;;5059971;28;20113;-64
2022/01/05 09:05:33;;;;;;;8.55;1.45;;;4.90;99.90;;;;;;5058855;28;20033;-64
2022/01/05 09:07:59;;;;;;;7.05;1.30;;;4.90;99.90;;;;;;5061289;28;20065;-64
2022/01/05 09:10:25;;;;;;;15.15;1.23;;;5.00;99.90;;;;;;5058138;28;20036;-64
2022/01/05 09:12:53;;;;;;;7.30;1.25;;;5.10;99.90;;;;;;5055476;28;20384;-64
2022/01/05 09:15:19;;;;;;;10.95;1.58;;;5.20;99.90;;;;;;5057958;28;20203;-64
2022/01/05 09:17:45;;;;;;;11.85;1.30;;;5.30;99.90;;;;;;5056919;28;20040;-64
2022/01/05 09:20:11;;;;;;;8.43;1.10;;;5.40;99.90;;;;;;5056081;28;20336;-64
2022/01/05 09:22:38;;;;;;;14.30;1.77;;;5.50;99.90;;;;;;5057408;28;20060;-64
2022/01/05 09:25:10;;;;;;;11.95;1.85;;;5.40;99.90;;;;;;5057781;28;20683;-64
2022/01/05 09:27:36;;;;;;;13.60;1.45;;;5.40;99.90;;;;;;5061635;28;20046;-64
2022/01/05 09:30:04;;;;;;;11.05;1.40;;;5.50;99.90;;;;;;5057383;28;20041;-64
2022/01/05 09:32:30;;;;;;;13.48;1.92;;;5.40;99.90;;;;;;5062870;28;20035;-64
2022/01/05 09:34:56;;;;;;;17.17;2.83;;;5.50;99.90;;;;;;5063084;28;20052;-64
2022/01/05 09:37:26;;;;;;;13.00;1.55;;;5.50;99.90;;;;;;5061400;28;20040;-64
2022/01/05 09:42:38;;;;;;;17.98;2.67;;;5.60;99.90;;;;;;5056889;28;20036;-64
2022/01/05 09:45:23;;;;;;;14.60;2.50;;;5.60;99.90;;;;;;5061517;28;20119;-64
2022/01/05 09:47:52;;;;;;;20.15;2.78;;;5.60;99.90;;;;;;5061696;28;20456;-64
2022/01/05 09:50:19;;;;;;;19.17;1.92;;;5.70;99.90;;;;;;5054856;28;20099;-64
2022/01/05 09:52:46;;;;;;;15.10;1.77;;;5.70;99.90;;;;;;5057067;28;20362;-65
2022/01/05 09:55:14;;;;;;;14.45;2.42;;;5.70;99.90;;;;;;5055739;28;20107;-65
2022/01/05 09:57:42;;;;;;;17.17;2.97;;;5.70;99.90;;;;;;5055410;28;20060;-65
2022/01/05 10:00:10;;;;;;;21.65;2.50;;;5.70;99.90;;;;;;5056980;28;20086;-65
2022/01/05 10:02:37;;;;;;;18.52;2.65;;;5.70;99.90;;;;;;5066030;28;20032;-65
2022/01/05 10:05:05;;;;;;;26.13;8.98;;;5.70;99.90;;;;;;5059513;28;20504;-65
2022/01/05 10:07:31;;;;;;;22.17;4.15;;;5.80;99.90;;;;;;5055486;28;20040;-65
2022/01/05 10:09:56;;;;;;;22.98;3.38;;;5.80;99.90;;;;;;5056941;28;20032;-65
2022/01/05 10:12:22;;;;;;;19.58;2.65;;;5.90;99.90;;;;;;5054420;28;20073;-65
2022/01/05 10:14:49;;;;;;;21.15;2.97;;;6.00;99.90;;;;;;5055949;28;20070;-65
2022/01/05 10:17:22;;;;;;;20.65;2.97;;;6.00;99.90;;;;;;5058438;28;20047;-65
2022/01/05 10:20:13;;;;;;;21.77;2.85;;;6.00;99.90;;;;;;5061797;28;20577;-65
2022/01/05 10:22:44;;;;;;;21.35;3.50;;;6.00;99.90;;;;;;5054961;28;20095;-65
2022/01/05 10:25:20;;;;;;;18.95;2.72;;;6.10;99.90;;;;;;5064121;28;20051;-65
2022/01/05 10:28:00;;;;;;;20.85;3.10;;;6.10;99.90;;;;;;5059779;28;20101;-66
2022/01/05 10:30:43;;;;;;;21.08;2.97;;;6.20;99.90;;;;;;5061464;28;20057;-65
2022/01/05 10:33:10;;;;;;;18.45;2.58;;;6.30;99.90;;;;;;5063016;28;20036;-65
2022/01/05 10:35:36;;;;;;;19.38;3.22;;;6.40;99.90;;;;;;5067574;28;20127;-65
2022/01/05 10:38:15;;;;;;;20.83;2.90;;;6.40;99.90;;;;;;5056097;28;20472;-65
2022/01/05 10:40:43;;;;;;;18.52;2.70;;;6.50;99.90;;;;;;5060679;28;20060;-65
2022/01/05 10:43:12;;;;;;;22.00;2.63;;;6.50;99.90;;;;;;5058732;28;20400;-65
2022/01/05 10:45:39;;;;;;;12.65;2.30;;;6.60;99.90;;;;;;5064577;28;20465;-65
2022/01/05 10:48:25;;;;;;;19.35;3.20;;;6.60;99.90;;;;;;5062454;28;20043;-65
2022/01/05 10:51:04;;;;;;;17.52;2.17;;;6.70;99.90;;;;;;5059705;28;20344;-65
2022/01/05 10:53:30;;;;;;;16.35;3.35;;;6.60;99.90;;;;;;5064834;28;20115;-65
2022/01/05 10:55:56;;;;;;;18.92;3.17;;;6.60;99.90;;;;;;5061591;28;20128;-65
2022/01/05 10:58:21;;;;;;;14.02;2.10;;;6.60;99.90;;;;;;5065046;28;20105;-65
2022/01/05 11:00:52;;;;;;;15.90;2.20;;;6.60;99.90;;;;;;5062681;28;20035;-65
2022/01/05 11:03:39;;;;;;;13.82;2.08;;;6.60;99.90;;;;;;5061175;28;20033;-65
2022/01/05 11:06:08;;;;;;;21.63;3.03;;;6.60;99.90;;;;;;5060259;28;20163;-65
2022/01/05 11:08:54;;;;;;;17.02;3.10;;;6.70;99.90;;;;;;5062286;28;20037;-65
2022/01/05 11:11:42;;;;;;;16.40;2.60;;;6.70;99.90;;;;;;5061646;28;20409;-65
2022/01/05 11:14:14;;;;;;;17.48;2.28;;;6.70;99.90;;;;;;5061240;28;20033;-65
2022/01/05 11:16:42;;;;;;;15.88;2.58;;;6.70;99.90;;;;;;5063707;28;20040;-65
2022/01/05 11:19:17;;;;;;;15.13;2.33;;;6.70;99.90;;;;;;5061702;28;20033;-65
2022/01/05 11:22:12;;;;;;;18.75;2.15;;;6.70;99.90;;;;;;5061482;28;20040;-65
2022/01/05 11:24:43;;;;;;;28.98;12.40;;;6.70;99.90;;;;;;5067562;28;20062;-65
2022/01/05 11:27:12;;;;;;;15.43;3.33;;;6.70;99.90;;;;;;5065029;28;20053;-65
2022/01/05 11:29:39;;;;;;;11.80;1.75;;;6.70;99.90;;;;;;5064143;28;20622;-65
2022/01/05 11:32:07;;;;;;;11.45;2.03;;;6.70;99.90;;;;;;5058350;28;20073;-65
2022/01/05 11:34:34;;;;;;;15.98;1.67;;;6.60;99.90;;;;;;5057260;28;20485;-65
2022/01/05 11:37:01;;;;;;;11.23;1.65;;;6.60;99.90;;;;;;5056843;28;20040;-65
2022/01/05 11:39:30;;;;;;;8.20;1.10;;;6.60;99.90;;;;;;5062008;28;20457;-65
2022/01/05 11:41:59;;;;;;;8.30;1.30;;;6.60;99.90;;;;;;5061213;28;20049;-65
2022/01/05 11:44:28;;;;;;;11.55;1.27;;;6.60;99.90;;;;;;5062187;28;20044;-65
2022/01/05 11:46:54;;;;;;;15.23;1.45;;;6.60;99.90;;;;;;5065641;28;20043;-65
2022/01/05 11:49:28;;;;;;;14.15;2.97;;;6.70;99.90;;;;;;5074741;28;20032;-65
2022/01/05 11:51:58;;;;;;;12.18;1.70;;;6.70;99.90;;;;;;5060547;28;20489;-65
2022/01/05 11:54:30;;;;;;;13.25;1.73;;;6.70;99.90;;;;;;5055975;28;20045;-65
2022/01/05 11:57:11;;;;;;;13.27;1.83;;;6.80;99.90;;;;;;5073932;28;20122;-65
2022/01/05 11:59:39;;;;;;;12.20;1.65;;;6.90;99.90;;;;;;5062946;28;20563;-65
2022/01/05 12:02:14;;;;;;;11.88;1.63;;;6.90;99.90;;;;;;5059744;28;20083;-65
2022/01/05 12:05:09;;;;;;;10.15;1.40;;;6.90;99.90;;;;;;5060984;28;20119;-65
2022/01/05 12:07:36;;;;;;;8.52;1.33;;;6.90;99.90;;;;;;5039020;28;20394;-66
2022/01/05 12:10:11;;;;;;;9.52;1.30;;;6.80;99.90;;;;;;5061485;28;20388;-66
2022/01/05 12:12:37;;;;;;;8.40;1.25;;;6.70;99.90;;;;;;5059270;28;20055;-66
2022/01/05 12:15:04;;;;;;;9.43;0.95;;;6.60;99.90;;;;;;5066920;28;20131;-66
2022/01/05 12:17:32;;;;;;;13.68;1.88;;;6.60;99.90;;;;;;5056682;28;20055;-66
2022/01/05 12:19:57;;;;;;;9.15;1.48;;;6.60;99.90;;;;;;5062911;28;20044;-66
2022/01/05 12:22:29;;;;;;;10.55;1.67;;;6.60;99.90;;;;;;5055143;28;20043;-66
2022/01/05 12:25:03;;;;;;;9.50;1.58;;;6.60;99.90;;;;;;5061673;28;20408;-67
2022/01/05 12:27:35;;;;;;;11.50;1.50;;;6.60;99.90;;;;;;5062464;28;20380;-67
2022/01/05 12:30:21;;;;;;;16.20;3.47;;;6.60;99.90;;;;;;5059641;28;20043;-66
2022/01/05 12:32:59;;;;;;;13.40;2.80;;;6.60;99.90;;;;;;5065438;28;20044;-66
2022/01/05 12:35:27;;;;;;;12.82;1.98;;;6.70;99.90;;;;;;5064595;28;20040;-66
2022/01/05 12:37:58;;;;;;;11.82;1.90;;;6.70;99.90;;;;;;5055622;28;20051;-66
2022/01/05 12:40:43;;;;;;;17.50;2.92;;;6.80;99.90;;;;;;5063721;28;20064;-67
2022/01/05 12:43:08;;;;;;;12.45;2.10;;;6.80;99.90;;;;;;5050473;28;20080;-66
2022/01/05 12:45:53;;;;;;;13.00;2.50;;;6.90;99.90;;;;;;5061217;28;20512;-66
2022/01/05 12:48:31;;;;;;;12.45;1.58;;;6.90;99.90;;;;;;5061253;28;20111;-66
2022/01/05 12:51:14;;;;;;;16.00;2.35;;;7.00;99.90;;;;;;5056202;28;20097;-66
2022/01/05 12:54:10;;;;;;;116.47;71.00;;;7.00;99.90;;;;;;5064282;28;20130;-67
2022/01/05 12:57:05;;;;;;;11.52;1.60;;;7.00;99.90;;;;;;5058839;28;20095;-67
2022/01/05 12:59:40;;;;;;;8.93;0.95;;;7.00;99.90;;;;;;5059959;28;20059;-64